GBGIY TAPA-TNCM
Flight info
| Callsign | GBGIY |
|---|---|
| Flight time | 0h 30m |
| Altitude | 20000 |
| Route | ANU B520 ELOPO DCT UMANA DCT AVAKI |
| Aircraft | SF50/L-BDGRSWY/LB2U2 |
Departure
| Time | 2026-05-05 17:16 |
|---|---|
| Airport | V. C. Bird International Airport (TAPA) |
Arrival
| Time | 2026-05-05 17:46 |
|---|---|
| Airport | Princess Juliana International Airport (TNCM) |
| Time | Latitude | Longitude | Altitude | Speed | Heading |
|---|---|---|---|---|---|
| 2026-05-05 16:57 | 17.14105 | -61.78128 | 36 ft | 0 kts | 5° |
| 2026-05-05 17:09 | 17.14107 | -61.78127 | 36 ft | 2 kts | 65° |
| 2026-05-05 17:09 | 17.14068 | -61.78131 | 37 ft | 11 kts | 201° |
| 2026-05-05 17:09 | 17.14060 | -61.78223 | 37 ft | 16 kts | 273° |
| 2026-05-05 17:10 | 17.14074 | -61.78352 | 39 ft | 20 kts | 274° |
| 2026-05-05 17:10 | 17.14085 | -61.78511 | 40 ft | 23 kts | 275° |
| 2026-05-05 17:10 | 17.14100 | -61.78668 | 40 ft | 20 kts | 275° |
| 2026-05-05 17:10 | 17.14111 | -61.78798 | 42 ft | 16 kts | 274° |
| 2026-05-05 17:11 | 17.14084 | -61.78899 | 43 ft | 14 kts | 238° |
| 2026-05-05 17:11 | 17.14028 | -61.78994 | 44 ft | 16 kts | 238° |
| 2026-05-05 17:11 | 17.13970 | -61.79101 | 45 ft | 18 kts | 232° |
| 2026-05-05 17:11 | 17.13874 | -61.79166 | 46 ft | 17 kts | 237° |
| 2026-05-05 17:12 | 17.13810 | -61.79279 | 48 ft | 18 kts | 240° |
| 2026-05-05 17:12 | 17.13740 | -61.79372 | 49 ft | 15 kts | 239° |
| 2026-05-05 17:12 | 17.13687 | -61.79462 | 50 ft | 14 kts | 238° |
| 2026-05-05 17:12 | 17.13634 | -61.79550 | 52 ft | 14 kts | 238° |
| 2026-05-05 17:13 | 17.13582 | -61.79635 | 53 ft | 14 kts | 239° |
| 2026-05-05 17:13 | 17.13527 | -61.79730 | 54 ft | 17 kts | 237° |
| 2026-05-05 17:13 | 17.13451 | -61.79819 | 55 ft | 15 kts | 201° |
| 2026-05-05 17:13 | 17.13358 | -61.79851 | 54 ft | 14 kts | 201° |
| 2026-05-05 17:14 | 17.13275 | -61.79937 | 55 ft | 21 kts | 238° |
| 2026-05-05 17:14 | 17.13187 | -61.80082 | 54 ft | 27 kts | 237° |
| 2026-05-05 17:14 | 17.13094 | -61.80240 | 59 ft | 21 kts | 237° |
| 2026-05-05 17:14 | 17.13072 | -61.80282 | 58 ft | 7 kts | 66° |
| 2026-05-05 17:15 | 17.13079 | -61.80267 | 60 ft | 0 kts | 57° |
| 2026-05-05 17:15 | 17.13147 | -61.80153 | 58 ft | 53 kts | 58° |
| 2026-05-05 17:15 | 17.13453 | -61.79630 | 143 ft | 107 kts | 63° |
| 2026-05-05 17:16 | 17.13856 | -61.78921 | 629 ft | 120 kts | 63° |
| 2026-05-05 17:16 | 17.14382 | -61.78145 | 1193 ft | 143 kts | 60° |
| 2026-05-05 17:16 | 17.15011 | -61.77272 | 1827 ft | 159 kts | 47° |
| 2026-05-05 17:16 | 17.16070 | -61.76793 | 2646 ft | 171 kts | 21° |
| 2026-05-05 17:17 | 17.17203 | -61.76418 | 3462 ft | 175 kts | 24° |
| 2026-05-05 17:17 | 17.18380 | -61.75994 | 4282 ft | 178 kts | 24° |
| 2026-05-05 17:17 | 17.19541 | -61.75599 | 5105 ft | 180 kts | 20° |
| 2026-05-05 17:17 | 17.20815 | -61.75665 | 5858 ft | 193 kts | 338° |
| 2026-05-05 17:18 | 17.21528 | -61.76259 | 6388 ft | 198 kts | 310° |
| 2026-05-05 17:18 | 17.22259 | -61.77496 | 7078 ft | 202 kts | 300° |
| 2026-05-05 17:18 | 17.23163 | -61.79173 | 8121 ft | 199 kts | 301° |
| 2026-05-05 17:18 | 17.23634 | -61.80020 | 8619 ft | 200 kts | 301° |
| 2026-05-05 17:19 | 17.24327 | -61.81280 | 9360 ft | 200 kts | 301° |
| 2026-05-05 17:19 | 17.25045 | -61.82576 | 9901 ft | 211 kts | 301° |
| 2026-05-05 17:19 | 17.25755 | -61.83866 | 10741 ft | 201 kts | 300° |
| 2026-05-05 17:19 | 17.26689 | -61.85556 | 11566 ft | 204 kts | 300° |
| 2026-05-05 17:20 | 17.27166 | -61.86425 | 12034 ft | 203 kts | 300° |
| 2026-05-05 17:20 | 17.27871 | -61.87705 | 12718 ft | 203 kts | 300° |
| 2026-05-05 17:20 | 17.28577 | -61.88985 | 13371 ft | 203 kts | 299° |
| 2026-05-05 17:20 | 17.29280 | -61.90263 | 14038 ft | 202 kts | 299° |
| 2026-05-05 17:21 | 17.29984 | -61.91541 | 14611 ft | 203 kts | 300° |
| 2026-05-05 17:21 | 17.30678 | -61.92804 | 15171 ft | 204 kts | 300° |
| 2026-05-05 17:21 | 17.31383 | -61.94084 | 15557 ft | 204 kts | 300° |
| 2026-05-05 17:22 | 17.32803 | -61.96657 | 16202 ft | 207 kts | 300° |
| 2026-05-05 17:22 | 17.33518 | -61.97963 | 16531 ft | 207 kts | 300° |
| 2026-05-05 17:22 | 17.34230 | -61.99261 | 16936 ft | 204 kts | 301° |
| 2026-05-05 17:22 | 17.34937 | -62.00536 | 17303 ft | 203 kts | 301° |
| 2026-05-05 17:23 | 17.35653 | -62.01838 | 17550 ft | 208 kts | 301° |
| 2026-05-05 17:23 | 17.36369 | -62.03144 | 17871 ft | 208 kts | 301° |
| 2026-05-05 17:23 | 17.37099 | -62.04474 | 18097 ft | 214 kts | 301° |
| 2026-05-05 17:23 | 17.37867 | -62.05867 | 18101 ft | 228 kts | 301° |
| 2026-05-05 17:24 | 17.38675 | -62.07340 | 18105 ft | 238 kts | 300° |
| 2026-05-05 17:24 | 17.39509 | -62.08862 | 18107 ft | 243 kts | 301° |
| 2026-05-05 17:24 | 17.40361 | -62.10408 | 18107 ft | 247 kts | 301° |
| 2026-05-05 17:24 | 17.41222 | -62.11975 | 18107 ft | 249 kts | 301° |
| 2026-05-05 17:25 | 17.42089 | -62.13554 | 18102 ft | 252 kts | 300° |
| 2026-05-05 17:25 | 17.42680 | -62.14631 | 18104 ft | 253 kts | 301° |
| 2026-05-05 17:25 | 17.43846 | -62.16755 | 18109 ft | 255 kts | 301° |
| 2026-05-05 17:25 | 17.44729 | -62.18365 | 18109 ft | 255 kts | 301° |
| 2026-05-05 17:26 | 17.45616 | -62.19982 | 18107 ft | 256 kts | 301° |
| 2026-05-05 17:26 | 17.46501 | -62.21600 | 18105 ft | 256 kts | 301° |
| 2026-05-05 17:26 | 17.47390 | -62.23221 | 18103 ft | 257 kts | 301° |
| 2026-05-05 17:26 | 17.48281 | -62.24847 | 18102 ft | 258 kts | 301° |
| 2026-05-05 17:27 | 17.49175 | -62.26479 | 18107 ft | 258 kts | 301° |
| 2026-05-05 17:27 | 17.50072 | -62.28116 | 18105 ft | 260 kts | 301° |
| 2026-05-05 17:27 | 17.50971 | -62.29757 | 18103 ft | 260 kts | 301° |
| 2026-05-05 17:27 | 17.51871 | -62.31401 | 18106 ft | 260 kts | 301° |
| 2026-05-05 17:28 | 17.52772 | -62.33047 | 18108 ft | 260 kts | 301° |
| 2026-05-05 17:28 | 17.53676 | -62.34696 | 18104 ft | 261 kts | 300° |
| 2026-05-05 17:28 | 17.54581 | -62.36350 | 18105 ft | 262 kts | 301° |
| 2026-05-05 17:28 | 17.55489 | -62.38008 | 18108 ft | 262 kts | 301° |
| 2026-05-05 17:29 | 17.56392 | -62.39666 | 18102 ft | 262 kts | 300° |
| 2026-05-05 17:29 | 17.57299 | -62.41324 | 18103 ft | 263 kts | 301° |
| 2026-05-05 17:29 | 17.58209 | -62.42985 | 18103 ft | 263 kts | 300° |
| 2026-05-05 17:29 | 17.59116 | -62.44651 | 18106 ft | 263 kts | 301° |
| 2026-05-05 17:30 | 17.60024 | -62.46312 | 18104 ft | 263 kts | 301° |
| 2026-05-05 17:30 | 17.60930 | -62.47970 | 18103 ft | 262 kts | 300° |
| 2026-05-05 17:30 | 17.61839 | -62.49632 | 18102 ft | 263 kts | 301° |
| 2026-05-05 17:30 | 17.62747 | -62.51297 | 18102 ft | 263 kts | 301° |
| 2026-05-05 17:31 | 17.63656 | -62.52961 | 18104 ft | 263 kts | 301° |
| 2026-05-05 17:31 | 17.64563 | -62.54623 | 18096 ft | 263 kts | 301° |
| 2026-05-05 17:31 | 17.65364 | -62.56364 | 17909 ft | 269 kts | 292° |
| 2026-05-05 17:31 | 17.66027 | -62.58234 | 17587 ft | 279 kts | 292° |
| 2026-05-05 17:32 | 17.66742 | -62.60168 | 17223 ft | 290 kts | 292° |
| 2026-05-05 17:32 | 17.67488 | -62.62175 | 16834 ft | 300 kts | 292° |
| 2026-05-05 17:32 | 17.68243 | -62.64240 | 16443 ft | 306 kts | 292° |
| 2026-05-05 17:32 | 17.69008 | -62.66333 | 16042 ft | 308 kts | 292° |
| 2026-05-05 17:33 | 17.69780 | -62.68433 | 15639 ft | 309 kts | 291° |
| 2026-05-05 17:33 | 17.70550 | -62.70529 | 15371 ft | 307 kts | 291° |
| 2026-05-05 17:33 | 17.71307 | -62.72587 | 15001 ft | 306 kts | 291° |
| 2026-05-05 17:33 | 17.72078 | -62.74696 | 14590 ft | 305 kts | 291° |
| 2026-05-05 17:34 | 17.72829 | -62.76744 | 14202 ft | 305 kts | 291° |
| 2026-05-05 17:34 | 17.73591 | -62.78821 | 13790 ft | 305 kts | 291° |
| 2026-05-05 17:34 | 17.74352 | -62.80901 | 13368 ft | 305 kts | 290° |
| 2026-05-05 17:34 | 17.75109 | -62.82972 | 12966 ft | 303 kts | 290° |
| 2026-05-05 17:35 | 17.75861 | -62.85028 | 12569 ft | 301 kts | 290° |
| 2026-05-05 17:35 | 17.76607 | -62.87068 | 12176 ft | 298 kts | 290° |
| 2026-05-05 17:35 | 17.77347 | -62.89091 | 11785 ft | 296 kts | 290° |
| 2026-05-05 17:35 | 17.78083 | -62.91107 | 11396 ft | 296 kts | 290° |
| 2026-05-05 17:36 | 17.78822 | -62.93126 | 11007 ft | 296 kts | 290° |
| 2026-05-05 17:36 | 17.79559 | -62.95143 | 10615 ft | 296 kts | 290° |
| 2026-05-05 17:36 | 17.80296 | -62.97162 | 10227 ft | 296 kts | 290° |
| 2026-05-05 17:36 | 17.81033 | -62.99179 | 9822 ft | 296 kts | 290° |
| 2026-05-05 17:37 | 17.81766 | -63.01185 | 9420 ft | 293 kts | 290° |
| 2026-05-05 17:37 | 17.82498 | -63.03193 | 9034 ft | 297 kts | 290° |
| 2026-05-05 17:37 | 17.83237 | -63.05221 | 8643 ft | 297 kts | 290° |
| 2026-05-05 17:37 | 17.83974 | -63.07246 | 8248 ft | 297 kts | 290° |
| 2026-05-05 17:38 | 17.84700 | -63.09231 | 7864 ft | 286 kts | 290° |
| 2026-05-05 17:38 | 17.85394 | -63.11140 | 7495 ft | 276 kts | 290° |
| 2026-05-05 17:38 | 17.86076 | -63.13020 | 7136 ft | 275 kts | 290° |
| 2026-05-05 17:38 | 17.86751 | -63.14879 | 6778 ft | 270 kts | 290° |
| 2026-05-05 17:39 | 17.87421 | -63.16714 | 6419 ft | 269 kts | 290° |
| 2026-05-05 17:39 | 17.88089 | -63.18551 | 6049 ft | 269 kts | 290° |
| 2026-05-05 17:39 | 17.88760 | -63.20387 | 5697 ft | 270 kts | 290° |
| 2026-05-05 17:39 | 17.89426 | -63.22224 | 5338 ft | 268 kts | 290° |
| 2026-05-05 17:40 | 17.90088 | -63.24049 | 4987 ft | 270 kts | 290° |
| 2026-05-05 17:40 | 17.90935 | -63.25809 | 4614 ft | 270 kts | 306° |
| 2026-05-05 17:40 | 17.92216 | -63.27195 | 4263 ft | 260 kts | 323° |
| 2026-05-05 17:40 | 17.93756 | -63.28112 | 3930 ft | 257 kts | 340° |
| 2026-05-05 17:41 | 17.95471 | -63.28559 | 3596 ft | 245 kts | 356° |
| 2026-05-05 17:41 | 17.97109 | -63.28636 | 3288 ft | 229 kts | 8° |
| 2026-05-05 17:41 | 17.98642 | -63.28254 | 2987 ft | 226 kts | 25° |
| 2026-05-05 17:41 | 18.00006 | -63.27466 | 2718 ft | 220 kts | 41° |
| 2026-05-05 17:42 | 18.01071 | -63.26394 | 2639 ft | 212 kts | 54° |
| 2026-05-05 17:42 | 18.01835 | -63.25100 | 2403 ft | 199 kts | 70° |
| 2026-05-05 17:42 | 18.02238 | -63.23813 | 2176 ft | 175 kts | 82° |
| 2026-05-05 17:42 | 18.02403 | -63.22667 | 1967 ft | 150 kts | 85° |
| 2026-05-05 17:43 | 18.02571 | -63.21514 | 1767 ft | 166 kts | 85° |
| 2026-05-05 17:43 | 18.02745 | -63.20329 | 1552 ft | 159 kts | 84° |
| 2026-05-05 17:43 | 18.02904 | -63.19230 | 1352 ft | 147 kts | 86° |
| 2026-05-05 17:43 | 18.03045 | -63.18247 | 1171 ft | 129 kts | 86° |
| 2026-05-05 17:44 | 18.03167 | -63.17408 | 1009 ft | 102 kts | 86° |
| 2026-05-05 17:44 | 18.03261 | -63.16748 | 881 ft | 84 kts | 87° |
| 2026-05-05 17:44 | 18.03344 | -63.16087 | 808 ft | 98 kts | 92° |
| 2026-05-05 17:44 | 18.03431 | -63.15358 | 704 ft | 104 kts | 89° |
| 2026-05-05 17:45 | 18.03568 | -63.14598 | 592 ft | 106 kts | 86° |
| 2026-05-05 17:45 | 18.03694 | -63.13852 | 462 ft | 102 kts | 88° |
| 2026-05-05 17:45 | 18.03788 | -63.13120 | 280 ft | 100 kts | 90° |
| 2026-05-05 17:45 | 18.03882 | -63.12436 | 160 ft | 90 kts | 87° |
| 2026-05-05 17:46 | 18.03966 | -63.11805 | 41 ft | 84 kts | 87° |
| 2026-05-05 17:46 | 18.04043 | -63.11257 | 14 ft | 64 kts | 91° |
| 2026-05-05 17:46 | 18.04091 | -63.10918 | 15 ft | 21 kts | 81° |
| 2026-05-05 17:46 | 18.04106 | -63.10792 | 14 ft | 15 kts | 79° |
| 2026-05-05 17:47 | 18.04154 | -63.10740 | 15 ft | 10 kts | 352° |
| 2026-05-05 17:47 | 18.04203 | -63.10744 | 15 ft | 5 kts | 28° |
| 2026-05-05 17:47 | 18.04214 | -63.10697 | 15 ft | 8 kts | 107° |
| 2026-05-05 17:47 | 18.04200 | -63.10696 | 15 ft | 0 kts | 353° |
| 2026-05-05 17:48 | 18.04201 | -63.10696 | 15 ft | 0 kts | 354° |